sensor_id;sensor_type;location;lat;lon;timestamp;P1;durP1;ratioP1;P2;durP2;ratioP2
4630;SDS011;2328;48.170;11.602;2023-04-03T00:01:39;3.33;;;2.53;;
4630;SDS011;2328;48.170;11.602;2023-04-03T00:04:08;5.03;;;2.67;;
4630;SDS011;2328;48.170;11.602;2023-04-03T00:06:37;3.10;;;2.13;;
4630;SDS011;2328;48.170;11.602;2023-04-03T00:09:06;4.80;;;2.53;;
4630;SDS011;2328;48.170;11.602;2023-04-03T00:11:35;3.93;;;2.10;;
4630;SDS011;2328;48.170;11.602;2023-04-03T00:14:04;3.70;;;2.57;;
4630;SDS011;2328;48.170;11.602;2023-04-03T00:16:32;6.63;;;2.80;;
4630;SDS011;2328;48.170;11.602;2023-04-03T00:19:01;4.60;;;2.47;;
4630;SDS011;2328;48.170;11.602;2023-04-03T00:21:33;5.40;;;2.77;;
4630;SDS011;2328;48.170;11.602;2023-04-03T00:24:02;5.60;;;2.60;;
4630;SDS011;2328;48.170;11.602;2023-04-03T00:26:30;7.97;;;2.90;;
4630;SDS011;2328;48.170;11.602;2023-04-03T00:28:59;4.50;;;2.77;;
4630;SDS011;2328;48.170;11.602;2023-04-03T00:31:28;8.60;;;2.50;;
4630;SDS011;2328;48.170;11.602;2023-04-03T00:33:57;4.30;;;2.73;;
4630;SDS011;2328;48.170;11.602;2023-04-03T00:36:26;2.87;;;2.00;;
4630;SDS011;2328;48.170;11.602;2023-04-03T00:38:56;4.47;;;2.07;;
4630;SDS011;2328;48.170;11.602;2023-04-03T00:41:25;5.07;;;3.00;;
4630;SDS011;2328;48.170;11.602;2023-04-03T00:43:53;7.73;;;2.20;;
4630;SDS011;2328;48.170;11.602;2023-04-03T00:46:22;5.20;;;3.00;;
4630;SDS011;2328;48.170;11.602;2023-04-03T00:48:52;4.70;;;2.50;;
4630;SDS011;2328;48.170;11.602;2023-04-03T00:51:22;3.07;;;1.97;;
4630;SDS011;2328;48.170;11.602;2023-04-03T00:53:52;3.83;;;2.63;;
4630;SDS011;2328;48.170;11.602;2023-04-03T00:56:25;3.03;;;2.30;;
4630;SDS011;2328;48.170;11.602;2023-04-03T00:58:56;3.40;;;1.93;;
4630;SDS011;2328;48.170;11.602;2023-04-03T01:01:27;3.80;;;2.40;;
4630;SDS011;2328;48.170;11.602;2023-04-03T01:03:56;6.77;;;2.47;;
4630;SDS011;2328;48.170;11.602;2023-04-03T01:06:26;3.27;;;1.83;;
4630;SDS011;2328;48.170;11.602;2023-04-03T01:08:57;2.90;;;1.80;;
4630;SDS011;2328;48.170;11.602;2023-04-03T01:11:27;4.40;;;2.67;;
4630;SDS011;2328;48.170;11.602;2023-04-03T01:13:56;7.40;;;2.53;;
4630;SDS011;2328;48.170;11.602;2023-04-03T01:16:24;3.50;;;2.10;;
4630;SDS011;2328;48.170;11.602;2023-04-03T01:18:55;3.53;;;1.93;;
4630;SDS011;2328;48.170;11.602;2023-04-03T01:21:28;6.77;;;2.90;;
4630;SDS011;2328;48.170;11.602;2023-04-03T01:24:08;4.20;;;2.40;;
4630;SDS011;2328;48.170;11.602;2023-04-03T01:26:41;2.53;;;1.70;;
4630;SDS011;2328;48.170;11.602;2023-04-03T01:29:15;2.83;;;2.50;;
4630;SDS011;2328;48.170;11.602;2023-04-03T01:31:50;6.70;;;2.17;;
4630;SDS011;2328;48.170;11.602;2023-04-03T01:34:19;3.77;;;1.70;;
4630;SDS011;2328;48.170;11.602;2023-04-03T01:36:48;3.27;;;2.33;;
4630;SDS011;2328;48.170;11.602;2023-04-03T01:39:18;4.20;;;2.80;;
4630;SDS011;2328;48.170;11.602;2023-04-03T01:41:47;6.80;;;3.20;;
4630;SDS011;2328;48.170;11.602;2023-04-03T01:44:15;3.70;;;2.73;;
4630;SDS011;2328;48.170;11.602;2023-04-03T01:46:44;1.87;;;1.77;;
4630;SDS011;2328;48.170;11.602;2023-04-03T01:49:14;5.73;;;2.37;;
4630;SDS011;2328;48.170;11.602;2023-04-03T01:51:44;3.97;;;1.97;;
4630;SDS011;2328;48.170;11.602;2023-04-03T01:54:12;4.37;;;2.60;;
4630;SDS011;2328;48.170;11.602;2023-04-03T01:56:40;3.37;;;2.50;;
4630;SDS011;2328;48.170;11.602;2023-04-03T01:59:09;2.90;;;2.30;;
4630;SDS011;2328;48.170;11.602;2023-04-03T02:01:38;6.67;;;2.97;;
4630;SDS011;2328;48.170;11.602;2023-04-03T02:04:07;4.10;;;2.37;;
4630;SDS011;2328;48.170;11.602;2023-04-03T02:06:37;2.20;;;2.00;;
4630;SDS011;2328;48.170;11.602;2023-04-03T02:09:06;4.77;;;2.40;;
4630;SDS011;2328;48.170;11.602;2023-04-03T02:11:34;4.10;;;1.83;;
4630;SDS011;2328;48.170;11.602;2023-04-03T02:14:03;5.47;;;1.90;;
4630;SDS011;2328;48.170;11.602;2023-04-03T02:16:31;2.30;;;1.60;;
4630;SDS011;2328;48.170;11.602;2023-04-03T02:19:00;3.87;;;2.27;;
4630;SDS011;2328;48.170;11.602;2023-04-03T02:21:28;4.40;;;1.50;;
4630;SDS011;2328;48.170;11.602;2023-04-03T02:23:58;3.33;;;2.03;;
4630;SDS011;2328;48.170;11.602;2023-04-03T02:26:28;3.33;;;2.40;;
4630;SDS011;2328;48.170;11.602;2023-04-03T02:28:56;1.40;;;1.20;;
4630;SDS011;2328;48.170;11.602;2023-04-03T02:31:24;4.93;;;2.20;;
4630;SDS011;2328;48.170;11.602;2023-04-03T02:33:55;3.23;;;2.13;;
4630;SDS011;2328;48.170;11.602;2023-04-03T02:36:24;2.00;;;1.70;;
4630;SDS011;2328;48.170;11.602;2023-04-03T02:38:52;1.80;;;1.60;;
4630;SDS011;2328;48.170;11.602;2023-04-03T02:41:22;1.40;;;1.30;;
4630;SDS011;2328;48.170;11.602;2023-04-03T02:43:52;3.47;;;1.97;;
4630;SDS011;2328;48.170;11.602;2023-04-03T02:46:20;2.67;;;1.80;;
4630;SDS011;2328;48.170;11.602;2023-04-03T02:48:49;1.40;;;1.30;;
4630;SDS011;2328;48.170;11.602;2023-04-03T02:51:17;2.33;;;2.13;;
4630;SDS011;2328;48.170;11.602;2023-04-03T02:53:46;3.90;;;1.97;;
4630;SDS011;2328;48.170;11.602;2023-04-03T02:56:17;6.00;;;2.27;;
4630;SDS011;2328;48.170;11.602;2023-04-03T02:58:49;1.90;;;1.40;;
4630;SDS011;2328;48.170;11.602;2023-04-03T03:01:17;3.67;;;2.20;;
4630;SDS011;2328;48.170;11.602;2023-04-03T03:03:46;2.90;;;1.87;;
4630;SDS011;2328;48.170;11.602;2023-04-03T03:06:17;1.57;;;1.43;;
4630;SDS011;2328;48.170;11.602;2023-04-03T03:08:46;3.70;;;1.73;;
4630;SDS011;2328;48.170;11.602;2023-04-03T03:11:14;1.93;;;1.00;;
4630;SDS011;2328;48.170;11.602;2023-04-03T03:13:43;1.40;;;1.30;;
4630;SDS011;2328;48.170;11.602;2023-04-03T03:16:13;3.43;;;1.77;;
4630;SDS011;2328;48.170;11.602;2023-04-03T03:18:43;1.70;;;1.53;;
4630;SDS011;2328;48.170;11.602;2023-04-03T03:21:12;4.03;;;1.83;;
4630;SDS011;2328;48.170;11.602;2023-04-03T03:23:40;1.93;;;1.53;;
4630;SDS011;2328;48.170;11.602;2023-04-03T03:26:10;2.00;;;1.77;;
4630;SDS011;2328;48.170;11.602;2023-04-03T03:28:38;1.20;;;1.10;;
4630;SDS011;2328;48.170;11.602;2023-04-03T03:31:08;1.80;;;1.60;;
4630;SDS011;2328;48.170;11.602;2023-04-03T03:33:38;1.63;;;1.37;;
4630;SDS011;2328;48.170;11.602;2023-04-03T03:36:07;1.57;;;1.40;;
4630;SDS011;2328;48.170;11.602;2023-04-03T03:41:58;1.23;;;1.10;;
4630;SDS011;2328;48.170;11.602;2023-04-03T03:44:27;2.80;;;1.70;;
4630;SDS011;2328;48.170;11.602;2023-04-03T03:46:56;1.63;;;1.43;;
4630;SDS011;2328;48.170;11.602;2023-04-03T03:49:26;7.77;;;1.63;;
4630;SDS011;2328;48.170;11.602;2023-04-03T03:51:54;1.10;;;1.00;;
4630;SDS011;2328;48.170;11.602;2023-04-03T03:54:23;1.80;;;1.43;;
4630;SDS011;2328;48.170;11.602;2023-04-03T03:56:52;1.53;;;1.20;;
4630;SDS011;2328;48.170;11.602;2023-04-03T03:59:20;1.93;;;1.40;;
4630;SDS011;2328;48.170;11.602;2023-04-03T04:01:49;1.00;;;1.00;;
4630;SDS011;2328;48.170;11.602;2023-04-03T04:04:17;3.03;;;1.50;;
4630;SDS011;2328;48.170;11.602;2023-04-03T04:06:48;8.10;;;2.10;;
4630;SDS011;2328;48.170;11.602;2023-04-03T04:09:16;2.23;;;1.60;;
4630;SDS011;2328;48.170;11.602;2023-04-03T04:11:46;1.47;;;1.37;;
4630;SDS011;2328;48.170;11.602;2023-04-03T04:14:17;1.43;;;1.33;;
4630;SDS011;2328;48.170;11.602;2023-04-03T04:16:47;1.67;;;1.30;;
4630;SDS011;2328;48.170;11.602;2023-04-03T04:19:16;6.33;;;1.93;;
4630;SDS011;2328;48.170;11.602;2023-04-03T04:21:45;2.63;;;1.90;;
4630;SDS011;2328;48.170;11.602;2023-04-03T04:24:15;2.60;;;2.13;;
4630;SDS011;2328;48.170;11.602;2023-04-03T04:26:43;2.10;;;1.33;;
4630;SDS011;2328;48.170;11.602;2023-04-03T04:29:12;1.93;;;1.53;;
4630;SDS011;2328;48.170;11.602;2023-04-03T04:31:43;2.30;;;1.50;;
4630;SDS011;2328;48.170;11.602;2023-04-03T04:34:12;1.20;;;0.87;;
4630;SDS011;2328;48.170;11.602;2023-04-03T04:36:42;1.50;;;1.40;;
4630;SDS011;2328;48.170;11.602;2023-04-03T04:39:11;5.87;;;1.30;;
4630;SDS011;2328;48.170;11.602;2023-04-03T04:41:45;3.40;;;1.30;;
4630;SDS011;2328;48.170;11.602;2023-04-03T04:44:14;3.20;;;1.40;;
4630;SDS011;2328;48.170;11.602;2023-04-03T04:46:42;1.60;;;1.50;;
4630;SDS011;2328;48.170;11.602;2023-04-03T04:49:14;3.30;;;1.63;;
4630;SDS011;2328;48.170;11.602;2023-04-03T04:51:59;1.40;;;1.10;;
4630;SDS011;2328;48.170;11.602;2023-04-03T04:54:28;1.20;;;1.00;;
4630;SDS011;2328;48.170;11.602;2023-04-03T04:56:58;3.57;;;1.67;;
4630;SDS011;2328;48.170;11.602;2023-04-03T04:59:27;1.67;;;1.37;;
4630;SDS011;2328;48.170;11.602;2023-04-03T05:01:55;2.60;;;1.43;;
4630;SDS011;2328;48.170;11.602;2023-04-03T05:04:24;2.73;;;1.87;;
4630;SDS011;2328;48.170;11.602;2023-04-03T05:06:52;1.73;;;1.60;;
4630;SDS011;2328;48.170;11.602;2023-04-03T05:09:21;1.33;;;1.23;;
4630;SDS011;2328;48.170;11.602;2023-04-03T05:11:49;1.70;;;1.20;;
4630;SDS011;2328;48.170;11.602;2023-04-03T05:14:20;5.03;;;1.30;;
4630;SDS011;2328;48.170;11.602;2023-04-03T05:16:48;3.33;;;1.53;;
4630;SDS011;2328;48.170;11.602;2023-04-03T05:19:19;2.17;;;1.90;;
4630;SDS011;2328;48.170;11.602;2023-04-03T05:21:47;2.17;;;1.97;;
4630;SDS011;2328;48.170;11.602;2023-04-03T05:24:16;3.63;;;1.47;;
4630;SDS011;2328;48.170;11.602;2023-04-03T05:26:44;2.37;;;1.50;;
4630;SDS011;2328;48.170;11.602;2023-04-03T05:29:13;1.43;;;1.33;;
4630;SDS011;2328;48.170;11.602;2023-04-03T05:31:43;2.13;;;1.40;;
4630;SDS011;2328;48.170;11.602;2023-04-03T05:34:12;1.27;;;1.10;;
4630;SDS011;2328;48.170;11.602;2023-04-03T05:39:35;2.73;;;1.60;;
4630;SDS011;2328;48.170;11.602;2023-04-03T05:42:05;2.30;;;1.60;;
4630;SDS011;2328;48.170;11.602;2023-04-03T05:44:34;2.30;;;1.40;;
4630;SDS011;2328;48.170;11.602;2023-04-03T05:47:04;2.90;;;1.67;;
4630;SDS011;2328;48.170;11.602;2023-04-03T05:49:33;2.27;;;1.70;;
4630;SDS011;2328;48.170;11.602;2023-04-03T05:52:01;3.53;;;1.97;;
4630;SDS011;2328;48.170;11.602;2023-04-03T05:54:30;4.10;;;2.57;;
4630;SDS011;2328;48.170;11.602;2023-04-03T05:56:58;2.90;;;1.83;;
4630;SDS011;2328;48.170;11.602;2023-04-03T05:59:27;2.00;;;1.60;;
4630;SDS011;2328;48.170;11.602;2023-04-03T06:01:56;4.40;;;1.23;;
4630;SDS011;2328;48.170;11.602;2023-04-03T06:04:25;3.03;;;1.80;;
4630;SDS011;2328;48.170;11.602;2023-04-03T06:06:55;3.93;;;2.00;;
4630;SDS011;2328;48.170;11.602;2023-04-03T06:09:25;4.20;;;2.40;;
4630;SDS011;2328;48.170;11.602;2023-04-03T06:11:55;1.77;;;1.67;;
4630;SDS011;2328;48.170;11.602;2023-04-03T06:14:25;6.83;;;2.00;;
4630;SDS011;2328;48.170;11.602;2023-04-03T06:16:54;3.00;;;2.17;;
4630;SDS011;2328;48.170;11.602;2023-04-03T06:19:22;1.97;;;1.30;;
4630;SDS011;2328;48.170;11.602;2023-04-03T06:21:53;3.50;;;1.87;;
4630;SDS011;2328;48.170;11.602;2023-04-03T06:24:24;2.33;;;1.37;;
4630;SDS011;2328;48.170;11.602;2023-04-03T06:26:53;2.40;;;2.13;;
4630;SDS011;2328;48.170;11.602;2023-04-03T06:29:21;2.10;;;1.37;;
4630;SDS011;2328;48.170;11.602;2023-04-03T06:31:51;2.40;;;1.57;;
4630;SDS011;2328;48.170;11.602;2023-04-03T06:34:20;2.43;;;1.33;;
4630;SDS011;2328;48.170;11.602;2023-04-03T06:36:50;3.90;;;2.00;;
4630;SDS011;2328;48.170;11.602;2023-04-03T06:39:21;2.30;;;1.60;;
4630;SDS011;2328;48.170;11.602;2023-04-03T06:41:50;3.10;;;2.37;;
4630;SDS011;2328;48.170;11.602;2023-04-03T06:44:19;2.50;;;1.70;;
4630;SDS011;2328;48.170;11.602;2023-04-03T06:46:48;1.57;;;1.47;;
4630;SDS011;2328;48.170;11.602;2023-04-03T06:49:18;2.70;;;1.43;;
4630;SDS011;2328;48.170;11.602;2023-04-03T06:51:46;2.10;;;1.40;;
4630;SDS011;2328;48.170;11.602;2023-04-03T06:54:21;3.20;;;1.90;;
4630;SDS011;2328;48.170;11.602;2023-04-03T06:56:51;3.37;;;1.90;;
4630;SDS011;2328;48.170;11.602;2023-04-03T06:59:30;3.17;;;1.73;;
4630;SDS011;2328;48.170;11.602;2023-04-03T07:01:58;2.43;;;1.53;;
4630;SDS011;2328;48.170;11.602;2023-04-03T07:04:28;3.90;;;2.03;;
4630;SDS011;2328;48.170;11.602;2023-04-03T07:06:57;2.47;;;2.27;;
4630;SDS011;2328;48.170;11.602;2023-04-03T07:09:36;2.80;;;1.73;;
4630;SDS011;2328;48.170;11.602;2023-04-03T07:12:20;3.07;;;2.20;;
4630;SDS011;2328;48.170;11.602;2023-04-03T07:14:56;2.23;;;2.03;;
4630;SDS011;2328;48.170;11.602;2023-04-03T07:17:25;4.83;;;1.97;;
4630;SDS011;2328;48.170;11.602;2023-04-03T07:19:55;2.70;;;1.97;;
4630;SDS011;2328;48.170;11.602;2023-04-03T07:22:24;1.30;;;1.20;;
4630;SDS011;2328;48.170;11.602;2023-04-03T07:24:53;2.20;;;2.00;;
4630;SDS011;2328;48.170;11.602;2023-04-03T07:27:26;2.30;;;1.67;;
4630;SDS011;2328;48.170;11.602;2023-04-03T07:30:02;3.33;;;2.00;;
4630;SDS011;2328;48.170;11.602;2023-04-03T07:32:31;9.47;;;2.30;;
4630;SDS011;2328;48.170;11.602;2023-04-03T07:34:59;2.97;;;1.83;;
4630;SDS011;2328;48.170;11.602;2023-04-03T07:37:29;3.33;;;1.50;;
4630;SDS011;2328;48.170;11.602;2023-04-03T07:39:58;2.57;;;2.00;;
4630;SDS011;2328;48.170;11.602;2023-04-03T07:42:31;2.83;;;1.80;;
4630;SDS011;2328;48.170;11.602;2023-04-03T07:44:59;2.17;;;1.57;;
4630;SDS011;2328;48.170;11.602;2023-04-03T07:47:33;5.80;;;2.90;;
4630;SDS011;2328;48.170;11.602;2023-04-03T07:50:02;2.70;;;1.70;;
4630;SDS011;2328;48.170;11.602;2023-04-03T07:52:31;1.90;;;1.80;;
4630;SDS011;2328;48.170;11.602;2023-04-03T07:55:00;5.33;;;2.67;;
4630;SDS011;2328;48.170;11.602;2023-04-03T07:57:28;2.30;;;1.80;;
4630;SDS011;2328;48.170;11.602;2023-04-03T07:59:58;2.20;;;2.00;;
4630;SDS011;2328;48.170;11.602;2023-04-03T08:02:27;2.70;;;2.00;;
4630;SDS011;2328;48.170;11.602;2023-04-03T08:04:58;2.60;;;1.80;;
4630;SDS011;2328;48.170;11.602;2023-04-03T08:07:33;6.20;;;2.73;;
4630;SDS011;2328;48.170;11.602;2023-04-03T08:10:02;3.27;;;2.50;;
4630;SDS011;2328;48.170;11.602;2023-04-03T08:12:30;4.97;;;2.30;;
4630;SDS011;2328;48.170;11.602;2023-04-03T08:15:00;5.13;;;2.73;;
4630;SDS011;2328;48.170;11.602;2023-04-03T08:17:29;8.63;;;3.03;;
4630;SDS011;2328;48.170;11.602;2023-04-03T08:20:06;4.50;;;2.10;;
4630;SDS011;2328;48.170;11.602;2023-04-03T08:22:35;2.27;;;2.07;;
4630;SDS011;2328;48.170;11.602;2023-04-03T08:25:04;3.57;;;2.50;;
4630;SDS011;2328;48.170;11.602;2023-04-03T08:27:34;4.77;;;2.40;;
4630;SDS011;2328;48.170;11.602;2023-04-03T08:30:06;3.17;;;2.10;;
4630;SDS011;2328;48.170;11.602;2023-04-03T08:32:35;3.07;;;1.83;;
4630;SDS011;2328;48.170;11.602;2023-04-03T08:35:04;4.67;;;3.10;;
4630;SDS011;2328;48.170;11.602;2023-04-03T08:37:34;3.77;;;2.60;;
4630;SDS011;2328;48.170;11.602;2023-04-03T08:40:04;4.60;;;2.13;;
4630;SDS011;2328;48.170;11.602;2023-04-03T08:42:36;3.80;;;2.13;;
4630;SDS011;2328;48.170;11.602;2023-04-03T08:45:12;2.20;;;2.07;;
4630;SDS011;2328;48.170;11.602;2023-04-03T08:47:43;4.77;;;2.90;;
4630;SDS011;2328;48.170;11.602;2023-04-03T08:50:14;3.60;;;2.63;;
4630;SDS011;2328;48.170;11.602;2023-04-03T08:52:44;3.50;;;2.57;;
4630;SDS011;2328;48.170;11.602;2023-04-03T08:55:17;9.20;;;2.70;;
4630;SDS011;2328;48.170;11.602;2023-04-03T08:57:48;3.27;;;2.40;;
4630;SDS011;2328;48.170;11.602;2023-04-03T09:00:21;3.67;;;2.27;;
4630;SDS011;2328;48.170;11.602;2023-04-03T09:03:01;2.70;;;2.50;;
4630;SDS011;2328;48.170;11.602;2023-04-03T09:05:32;1.70;;;1.60;;
4630;SDS011;2328;48.170;11.602;2023-04-03T09:08:07;3.03;;;2.33;;
4630;SDS011;2328;48.170;11.602;2023-04-03T09:10:40;3.00;;;2.20;;
4630;SDS011;2328;48.170;11.602;2023-04-03T09:13:11;3.10;;;2.67;;
4630;SDS011;2328;48.170;11.602;2023-04-03T09:15:44;3.23;;;2.20;;
4630;SDS011;2328;48.170;11.602;2023-04-03T09:18:15;3.00;;;2.10;;
4630;SDS011;2328;48.170;11.602;2023-04-03T09:20:46;6.10;;;2.43;;
4630;SDS011;2328;48.170;11.602;2023-04-03T09:23:18;2.40;;;2.20;;
4630;SDS011;2328;48.170;11.602;2023-04-03T09:25:48;4.10;;;2.43;;
4630;SDS011;2328;48.170;11.602;2023-04-03T09:28:18;3.80;;;1.93;;
4630;SDS011;2328;48.170;11.602;2023-04-03T09:30:48;3.37;;;2.53;;
4630;SDS011;2328;48.170;11.602;2023-04-03T09:33:17;4.23;;;2.30;;
4630;SDS011;2328;48.170;11.602;2023-04-03T09:35:46;2.03;;;1.90;;
4630;SDS011;2328;48.170;11.602;2023-04-03T09:38:18;2.13;;;2.00;;
4630;SDS011;2328;48.170;11.602;2023-04-03T09:40:47;5.40;;;2.20;;
4630;SDS011;2328;48.170;11.602;2023-04-03T09:43:22;3.03;;;2.13;;
4630;SDS011;2328;48.170;11.602;2023-04-03T09:45:52;4.13;;;2.27;;
4630;SDS011;2328;48.170;11.602;2023-04-03T09:48:22;2.47;;;2.27;;
4630;SDS011;2328;48.170;11.602;2023-04-03T09:50:55;3.30;;;2.00;;
4630;SDS011;2328;48.170;11.602;2023-04-03T09:53:30;2.20;;;2.00;;
4630;SDS011;2328;48.170;11.602;2023-04-03T09:55:59;2.97;;;2.00;;
4630;SDS011;2328;48.170;11.602;2023-04-03T09:58:30;3.93;;;1.63;;
4630;SDS011;2328;48.170;11.602;2023-04-03T10:01:22;2.40;;;2.00;;
4630;SDS011;2328;48.170;11.602;2023-04-03T10:04:03;2.77;;;1.80;;
4630;SDS011;2328;48.170;11.602;2023-04-03T10:06:33;9.30;;;2.43;;
4630;SDS011;2328;48.170;11.602;2023-04-03T10:09:04;4.60;;;1.80;;
4630;SDS011;2328;48.170;11.602;2023-04-03T10:11:33;12.63;;;2.20;;
4630;SDS011;2328;48.170;11.602;2023-04-03T10:14:02;2.30;;;2.10;;
4630;SDS011;2328;48.170;11.602;2023-04-03T10:16:38;3.50;;;2.27;;
4630;SDS011;2328;48.170;11.602;2023-04-03T10:19:14;3.33;;;3.03;;
4630;SDS011;2328;48.170;11.602;2023-04-03T10:21:50;2.77;;;1.77;;
4630;SDS011;2328;48.170;11.602;2023-04-03T10:24:23;4.47;;;2.40;;
4630;SDS011;2328;48.170;11.602;2023-04-03T10:27:09;2.73;;;2.20;;
4630;SDS011;2328;48.170;11.602;2023-04-03T10:29:40;2.43;;;2.17;;
4630;SDS011;2328;48.170;11.602;2023-04-03T10:32:15;3.47;;;1.53;;
4630;SDS011;2328;48.170;11.602;2023-04-03T10:34:47;3.40;;;1.90;;
4630;SDS011;2328;48.170;11.602;2023-04-03T10:37:30;1.70;;;1.60;;
4630;SDS011;2328;48.170;11.602;2023-04-03T10:40:05;1.67;;;1.30;;
4630;SDS011;2328;48.170;11.602;2023-04-03T10:42:39;3.13;;;1.53;;
4630;SDS011;2328;48.170;11.602;2023-04-03T10:45:20;6.13;;;1.93;;
4630;SDS011;2328;48.170;11.602;2023-04-03T10:47:54;1.97;;;1.60;;
4630;SDS011;2328;48.170;11.602;2023-04-03T10:50:36;2.70;;;1.27;;
4630;SDS011;2328;48.170;11.602;2023-04-03T10:53:08;3.27;;;2.13;;
4630;SDS011;2328;48.170;11.602;2023-04-03T10:55:41;4.60;;;1.37;;
4630;SDS011;2328;48.170;11.602;2023-04-03T10:58:14;1.77;;;1.40;;
4630;SDS011;2328;48.170;11.602;2023-04-03T11:00:47;2.90;;;1.80;;
4630;SDS011;2328;48.170;11.602;2023-04-03T11:03:22;2.07;;;1.50;;
4630;SDS011;2328;48.170;11.602;2023-04-03T11:05:53;4.83;;;1.77;;
4630;SDS011;2328;48.170;11.602;2023-04-03T11:08:24;1.53;;;1.43;;
4630;SDS011;2328;48.170;11.602;2023-04-03T11:10:57;3.57;;;1.50;;
4630;SDS011;2328;48.170;11.602;2023-04-03T11:13:28;2.63;;;2.00;;
4630;SDS011;2328;48.170;11.602;2023-04-03T11:16:00;3.47;;;1.57;;
4630;SDS011;2328;48.170;11.602;2023-04-03T11:18:34;2.93;;;2.00;;
4630;SDS011;2328;48.170;11.602;2023-04-03T11:21:06;1.50;;;1.40;;
4630;SDS011;2328;48.170;11.602;2023-04-03T11:23:36;2.07;;;1.37;;
4630;SDS011;2328;48.170;11.602;2023-04-03T11:26:15;4.70;;;1.80;;
4630;SDS011;2328;48.170;11.602;2023-04-03T11:28:51;2.30;;;1.43;;
4630;SDS011;2328;48.170;11.602;2023-04-03T11:31:25;1.77;;;1.33;;
4630;SDS011;2328;48.170;11.602;2023-04-03T11:33:58;5.67;;;1.50;;
4630;SDS011;2328;48.170;11.602;2023-04-03T11:36:32;8.37;;;1.37;;
4630;SDS011;2328;48.170;11.602;2023-04-03T11:39:07;1.43;;;1.33;;
4630;SDS011;2328;48.170;11.602;2023-04-03T11:41:38;2.03;;;1.10;;
4630;SDS011;2328;48.170;11.602;2023-04-03T11:44:24;3.90;;;1.17;;
4630;SDS011;2328;48.170;11.602;2023-04-03T11:46:55;1.57;;;1.27;;
4630;SDS011;2328;48.170;11.602;2023-04-03T11:52:17;1.20;;;1.00;;
4630;SDS011;2328;48.170;11.602;2023-04-03T11:58:03;1.60;;;1.33;;
4630;SDS011;2328;48.170;11.602;2023-04-03T12:00:52;0.90;;;0.70;;
4630;SDS011;2328;48.170;11.602;2023-04-03T12:09:29;1.13;;;0.80;;
4630;SDS011;2328;48.170;11.602;2023-04-03T12:12:00;0.83;;;0.80;;
4630;SDS011;2328;48.170;11.602;2023-04-03T12:14:29;3.63;;;0.83;;
4630;SDS011;2328;48.170;11.602;2023-04-03T12:16:58;0.83;;;0.83;;
4630;SDS011;2328;48.170;11.602;2023-04-03T12:19:34;1.83;;;0.87;;
4630;SDS011;2328;48.170;11.602;2023-04-03T12:22:15;1.77;;;0.90;;
4630;SDS011;2328;48.170;11.602;2023-04-03T12:24:48;1.27;;;1.20;;
4630;SDS011;2328;48.170;11.602;2023-04-03T12:27:25;1.00;;;0.77;;
4630;SDS011;2328;48.170;11.602;2023-04-03T12:29:55;1.17;;;0.90;;
4630;SDS011;2328;48.170;11.602;2023-04-03T12:32:31;4.43;;;0.87;;
4630;SDS011;2328;48.170;11.602;2023-04-03T12:35:09;0.77;;;0.77;;
4630;SDS011;2328;48.170;11.602;2023-04-03T12:37:50;4.83;;;1.20;;
4630;SDS011;2328;48.170;11.602;2023-04-03T12:40:26;0.70;;;0.70;;
4630;SDS011;2328;48.170;11.602;2023-04-03T12:43:06;2.23;;;1.07;;
4630;SDS011;2328;48.170;11.602;2023-04-03T12:45:40;1.20;;;1.00;;
4630;SDS011;2328;48.170;11.602;2023-04-03T12:48:12;0.60;;;0.60;;
4630;SDS011;2328;48.170;11.602;2023-04-03T12:50:52;2.73;;;0.70;;
4630;SDS011;2328;48.170;11.602;2023-04-03T12:53:21;1.97;;;0.93;;
4630;SDS011;2328;48.170;11.602;2023-04-03T12:58:55;1.07;;;0.90;;
4630;SDS011;2328;48.170;11.602;2023-04-03T13:01:25;0.93;;;0.93;;
4630;SDS011;2328;48.170;11.602;2023-04-03T13:04:14;1.03;;;0.70;;
4630;SDS011;2328;48.170;11.602;2023-04-03T13:06:43;1.60;;;1.10;;
4630;SDS011;2328;48.170;11.602;2023-04-03T13:09:21;1.20;;;1.00;;
4630;SDS011;2328;48.170;11.602;2023-04-03T13:11:52;0.97;;;0.77;;
4630;SDS011;2328;48.170;11.602;2023-04-03T13:14:25;2.07;;;0.80;;
4630;SDS011;2328;48.170;11.602;2023-04-03T13:16:55;1.27;;;0.93;;
4630;SDS011;2328;48.170;11.602;2023-04-03T13:19:30;0.90;;;0.80;;
4630;SDS011;2328;48.170;11.602;2023-04-03T13:22:01;1.40;;;1.00;;
4630;SDS011;2328;48.170;11.602;2023-04-03T13:24:31;1.93;;;1.10;;
4630;SDS011;2328;48.170;11.602;2023-04-03T13:27:01;1.43;;;0.90;;
4630;SDS011;2328;48.170;11.602;2023-04-03T13:29:32;1.20;;;0.73;;
4630;SDS011;2328;48.170;11.602;2023-04-03T13:32:01;1.20;;;1.07;;
4630;SDS011;2328;48.170;11.602;2023-04-03T13:34:35;1.43;;;0.60;;
4630;SDS011;2328;48.170;11.602;2023-04-03T13:37:04;1.00;;;0.67;;
4630;SDS011;2328;48.170;11.602;2023-04-03T13:39:38;5.97;;;1.00;;
4630;SDS011;2328;48.170;11.602;2023-04-03T13:42:14;1.10;;;0.73;;
4630;SDS011;2328;48.170;11.602;2023-04-03T13:44:47;0.90;;;0.90;;
4630;SDS011;2328;48.170;11.602;2023-04-03T13:47:18;1.47;;;1.27;;
4630;SDS011;2328;48.170;11.602;2023-04-03T13:49:58;1.17;;;0.80;;
4630;SDS011;2328;48.170;11.602;2023-04-03T13:55:19;1.03;;;0.77;;
4630;SDS011;2328;48.170;11.602;2023-04-03T13:57:52;2.10;;;1.17;;
4630;SDS011;2328;48.170;11.602;2023-04-03T14:00:47;0.80;;;0.77;;
4630;SDS011;2328;48.170;11.602;2023-04-03T14:03:17;11.93;;;1.20;;
4630;SDS011;2328;48.170;11.602;2023-04-03T14:05:46;1.10;;;0.87;;
4630;SDS011;2328;48.170;11.602;2023-04-03T14:08:15;2.17;;;0.83;;
4630;SDS011;2328;48.170;11.602;2023-04-03T14:10:51;1.57;;;0.90;;
4630;SDS011;2328;48.170;11.602;2023-04-03T14:13:21;1.83;;;0.90;;
4630;SDS011;2328;48.170;11.602;2023-04-03T14:15:51;3.67;;;0.77;;
4630;SDS011;2328;48.170;11.602;2023-04-03T14:18:23;0.93;;;0.87;;
4630;SDS011;2328;48.170;11.602;2023-04-03T14:20:51;0.80;;;0.80;;
4630;SDS011;2328;48.170;11.602;2023-04-03T14:23:20;1.73;;;0.93;;
4630;SDS011;2328;48.170;11.602;2023-04-03T14:25:49;0.67;;;0.60;;
4630;SDS011;2328;48.170;11.602;2023-04-03T14:28:20;0.97;;;0.97;;
4630;SDS011;2328;48.170;11.602;2023-04-03T14:30:50;2.83;;;1.00;;
4630;SDS011;2328;48.170;11.602;2023-04-03T14:33:28;1.10;;;0.70;;
4630;SDS011;2328;48.170;11.602;2023-04-03T14:36:02;4.90;;;0.77;;
4630;SDS011;2328;48.170;11.602;2023-04-03T14:38:33;1.60;;;1.40;;
4630;SDS011;2328;48.170;11.602;2023-04-03T14:41:02;0.80;;;0.77;;
4630;SDS011;2328;48.170;11.602;2023-04-03T14:43:41;0.80;;;0.57;;
4630;SDS011;2328;48.170;11.602;2023-04-03T14:46:12;1.10;;;0.83;;
4630;SDS011;2328;48.170;11.602;2023-04-03T14:48:44;5.40;;;0.60;;
4630;SDS011;2328;48.170;11.602;2023-04-03T14:51:13;0.80;;;0.70;;
4630;SDS011;2328;48.170;11.602;2023-04-03T14:53:42;0.87;;;0.87;;
4630;SDS011;2328;48.170;11.602;2023-04-03T14:56:22;0.67;;;0.67;;
4630;SDS011;2328;48.170;11.602;2023-04-03T14:58:55;1.63;;;0.70;;
4630;SDS011;2328;48.170;11.602;2023-04-03T15:01:24;0.90;;;0.70;;
4630;SDS011;2328;48.170;11.602;2023-04-03T15:03:55;1.60;;;0.80;;
4630;SDS011;2328;48.170;11.602;2023-04-03T15:06:23;1.40;;;0.73;;
4630;SDS011;2328;48.170;11.602;2023-04-03T15:08:53;1.63;;;0.67;;
4630;SDS011;2328;48.170;11.602;2023-04-03T15:11:21;0.70;;;0.50;;
4630;SDS011;2328;48.170;11.602;2023-04-03T15:13:50;1.80;;;0.50;;
4630;SDS011;2328;48.170;11.602;2023-04-03T15:16:19;1.43;;;0.97;;
4630;SDS011;2328;48.170;11.602;2023-04-03T15:18:48;5.70;;;0.90;;
4630;SDS011;2328;48.170;11.602;2023-04-03T15:21:18;0.80;;;0.80;;
4630;SDS011;2328;48.170;11.602;2023-04-03T15:23:47;0.67;;;0.40;;
4630;SDS011;2328;48.170;11.602;2023-04-03T15:26:15;0.97;;;0.60;;
4630;SDS011;2328;48.170;11.602;2023-04-03T15:28:44;1.40;;;0.53;;
4630;SDS011;2328;48.170;11.602;2023-04-03T15:31:14;0.80;;;0.63;;
4630;SDS011;2328;48.170;11.602;2023-04-03T15:33:42;1.07;;;0.80;;
4630;SDS011;2328;48.170;11.602;2023-04-03T15:36:11;0.93;;;0.67;;
4630;SDS011;2328;48.170;11.602;2023-04-03T15:38:59;1.03;;;0.97;;
4630;SDS011;2328;48.170;11.602;2023-04-03T15:41:28;1.00;;;0.90;;
4630;SDS011;2328;48.170;11.602;2023-04-03T15:43:56;1.07;;;0.77;;
4630;SDS011;2328;48.170;11.602;2023-04-03T15:46:26;0.70;;;0.60;;
4630;SDS011;2328;48.170;11.602;2023-04-03T15:48:55;2.77;;;0.70;;